createdAt,value
2023-01-07T00:04:00.680Z,7.84
2023-01-07T00:09:03.543Z,7.84
2023-01-07T00:14:06.226Z,7.85
2023-01-07T00:19:09.097Z,7.73
2023-01-07T00:24:11.951Z,7.78
2023-01-07T00:29:14.613Z,7.84
2023-01-07T00:34:17.664Z,7.80
2023-01-07T00:39:20.430Z,7.83
2023-01-07T00:44:23.000Z,7.80
2023-01-07T00:49:25.626Z,7.84
2023-01-07T00:54:28.509Z,7.87
2023-01-07T00:59:31.810Z,7.83
2023-01-07T01:04:34.428Z,7.77
2023-01-07T01:09:37.029Z,7.78
2023-01-07T01:14:39.667Z,7.79
2023-01-07T01:19:42.298Z,7.76
2023-01-07T01:24:44.882Z,7.83
2023-01-07T01:29:47.464Z,7.85
2023-01-07T01:34:50.056Z,7.84
2023-01-07T01:39:52.642Z,7.83
2023-01-07T01:44:55.251Z,7.77
2023-01-07T01:49:58.152Z,7.83
2023-01-07T01:55:00.816Z,7.80
2023-01-07T02:00:03.465Z,7.85
2023-01-07T02:05:06.164Z,7.83
2023-01-07T02:10:08.940Z,7.79
2023-01-07T02:15:11.625Z,7.79
2023-01-07T02:20:14.375Z,7.75
2023-01-07T02:25:17.248Z,7.78
2023-01-07T02:30:19.847Z,7.78
2023-01-07T02:35:22.515Z,7.71
2023-01-07T02:40:25.132Z,7.77
2023-01-07T02:45:28.152Z,7.66
2023-01-07T02:50:30.922Z,7.65
2023-01-07T02:55:33.844Z,7.64
2023-01-07T03:00:36.539Z,7.68
2023-01-07T03:05:40.009Z,7.63
2023-01-07T03:10:42.772Z,7.59
2023-01-07T03:15:45.392Z,7.55
2023-01-07T03:20:48.007Z,7.53
2023-01-07T03:25:50.579Z,7.50
2023-01-07T03:30:53.310Z,7.56
2023-01-07T03:35:56.028Z,7.54
2023-01-07T03:40:58.708Z,7.51
2023-01-07T03:46:01.502Z,7.53
2023-01-07T03:51:04.190Z,7.56
2023-01-07T03:56:06.757Z,7.54
2023-01-07T04:01:09.443Z,7.49
2023-01-07T04:06:12.568Z,7.49
2023-01-07T04:11:15.237Z,7.49
2023-01-07T04:16:18.049Z,7.53
2023-01-07T04:21:20.692Z,7.47
2023-01-07T04:26:23.376Z,7.42
2023-01-07T04:31:26.358Z,7.37
2023-01-07T04:36:29.029Z,7.31
2023-01-07T04:41:31.690Z,7.28
2023-01-07T04:46:34.443Z,7.28
2023-01-07T04:51:37.244Z,7.19
2023-01-07T04:56:39.936Z,7.19
2023-01-07T05:01:42.720Z,7.12
2023-01-07T05:06:45.417Z,7.02
2023-01-07T05:11:48.155Z,6.85
2023-01-07T05:16:51.006Z,6.67
2023-01-07T05:21:54.253Z,6.57
2023-01-07T05:26:56.951Z,6.54
2023-01-07T05:31:59.881Z,6.41
2023-01-07T05:37:02.541Z,6.26
2023-01-07T05:42:05.184Z,6.10
2023-01-07T05:47:07.890Z,5.82
2023-01-07T05:52:10.540Z,5.58
2023-01-07T05:57:13.420Z,5.36
2023-01-07T06:02:17.007Z,5.22
2023-01-07T06:07:19.632Z,5.07
2023-01-07T06:12:22.259Z,4.95
2023-01-07T06:17:24.871Z,4.79
2023-01-07T06:22:27.724Z,4.74
2023-01-07T06:27:30.448Z,4.69
2023-01-07T06:32:33.053Z,4.60
2023-01-07T06:37:37.946Z,4.54
2023-01-07T06:42:40.686Z,4.47
2023-01-07T06:47:45.572Z,4.41
2023-01-07T06:52:48.425Z,4.34
2023-01-07T06:57:51.007Z,4.28
2023-01-07T07:02:53.788Z,4.25
2023-01-07T07:07:56.568Z,4.17
2023-01-07T07:12:59.199Z,4.18
2023-01-07T07:18:01.935Z,4.14
2023-01-07T07:23:04.706Z,4.18
2023-01-07T07:28:07.467Z,4.16
2023-01-07T07:33:12.652Z,4.12
2023-01-07T07:38:16.385Z,4.05
2023-01-07T07:43:19.060Z,4.10
2023-01-07T07:48:21.649Z,4.05
2023-01-07T07:53:24.326Z,4.05
2023-01-07T07:58:26.955Z,4.11
2023-01-07T08:03:29.687Z,4.17
2023-01-07T08:08:32.256Z,4.15
2023-01-07T08:13:35.028Z,4.10
2023-01-07T08:18:37.645Z,4.12
2023-01-07T08:23:40.335Z,4.24
2023-01-07T08:28:45.119Z,4.23
2023-01-07T08:33:49.094Z,4.25
2023-01-07T08:38:52.243Z,4.36
2023-01-07T08:43:54.967Z,4.45
2023-01-07T08:48:57.709Z,4.49
2023-01-07T08:54:01.541Z,4.54
2023-01-07T08:59:05.531Z,4.55
2023-01-07T09:04:08.337Z,4.70
2023-01-07T09:09:11.907Z,4.74
2023-01-07T09:14:14.835Z,4.78
2023-01-07T09:19:17.455Z,4.81
2023-01-07T09:24:20.297Z,4.85
2023-01-07T09:29:23.223Z,4.94
2023-01-07T09:34:25.939Z,5.01
2023-01-07T09:39:29.665Z,5.06
2023-01-07T09:44:32.645Z,5.14
2023-01-07T09:49:35.482Z,5.22
2023-01-07T09:54:42.153Z,5.32
2023-01-07T09:59:44.939Z,5.46
2023-01-07T10:04:49.727Z,5.55
2023-01-07T10:09:52.372Z,5.60
2023-01-07T10:14:55.028Z,5.60
2023-01-07T10:19:57.676Z,5.64
2023-01-07T10:25:00.374Z,5.90
2023-01-07T10:30:03.978Z,6.03
2023-01-07T10:35:06.611Z,6.10
2023-01-07T10:40:09.264Z,6.26
2023-01-07T10:45:12.166Z,6.47
2023-01-07T10:50:14.968Z,6.61
2023-01-07T10:55:18.704Z,6.76
2023-01-07T11:00:21.438Z,6.87
2023-01-07T11:05:25.092Z,6.91
2023-01-07T11:10:27.804Z,7.02
2023-01-07T11:15:30.617Z,7.01
2023-01-07T11:20:33.244Z,7.03
2023-01-07T11:25:35.977Z,7.17
2023-01-07T11:30:38.643Z,7.12
2023-01-07T11:35:45.795Z,7.10
2023-01-07T11:40:48.599Z,7.15
2023-01-07T11:46:19.816Z,7.21
2023-01-07T11:51:16.274Z,7.39
2023-01-07T11:56:18.958Z,7.45
2023-01-07T12:01:21.762Z,7.60
2023-01-07T12:06:24.578Z,7.64
2023-01-07T12:11:27.268Z,7.72
2023-01-07T12:16:29.940Z,7.80
2023-01-07T12:21:32.682Z,7.79
2023-01-07T12:26:35.316Z,7.87
2023-01-07T12:31:38.027Z,7.92
2023-01-07T12:36:40.799Z,7.83
2023-01-07T12:41:43.623Z,7.85
2023-01-07T12:46:46.360Z,7.76
2023-01-07T12:51:49.008Z,7.90
2023-01-07T12:56:51.810Z,7.95
2023-01-07T13:01:54.712Z,7.85
2023-01-07T13:06:57.572Z,7.75
2023-01-07T13:12:41.660Z,7.69
2023-01-07T13:17:40.942Z,7.60
2023-01-07T13:22:43.787Z,7.62
2023-01-07T13:27:46.440Z,7.64
2023-01-07T13:32:50.149Z,7.68
2023-01-07T13:37:52.893Z,7.61
2023-01-07T13:42:55.638Z,7.69
2023-01-07T13:47:58.404Z,7.50
2023-01-07T13:53:01.224Z,7.44
2023-01-07T13:58:03.910Z,7.47
2023-01-07T14:03:06.843Z,7.57
2023-01-07T14:08:09.516Z,7.49
2023-01-07T14:13:12.340Z,7.51
2023-01-07T14:18:17.593Z,7.57
2023-01-07T14:23:21.428Z,7.53
2023-01-07T14:28:24.359Z,7.28
2023-01-07T14:33:27.068Z,7.20
2023-01-07T14:38:29.899Z,7.07
2023-01-07T14:43:32.709Z,7.03
2023-01-07T14:48:36.516Z,6.96
2023-01-07T14:53:39.076Z,6.78
2023-01-07T14:58:41.907Z,6.78
2023-01-07T15:03:44.579Z,6.86
2023-01-07T15:09:04.868Z,6.82
2023-01-07T15:14:25.399Z,6.72
2023-01-07T15:19:28.061Z,6.66
2023-01-07T15:24:30.851Z,6.49
2023-01-07T15:29:33.517Z,6.43
2023-01-07T15:34:36.291Z,6.28
2023-01-07T15:39:40.795Z,6.23
2023-01-07T15:44:43.484Z,6.04
2023-01-07T15:49:46.213Z,5.94
2023-01-07T15:54:48.966Z,5.90
2023-01-07T15:59:53.646Z,5.76
2023-01-07T16:04:56.367Z,5.80
2023-01-07T16:09:59.019Z,5.64
2023-01-07T16:15:03.544Z,5.48
2023-01-07T16:20:08.411Z,5.31
2023-01-07T16:25:11.050Z,5.23
2023-01-07T16:30:14.669Z,5.22
2023-01-07T16:35:17.301Z,5.14
2023-01-07T16:40:20.193Z,5.00
2023-01-07T16:45:23.731Z,5.40
2023-01-07T16:50:26.977Z,5.15
2023-01-07T16:55:29.935Z,5.10
2023-01-07T17:00:32.663Z,4.89
2023-01-07T17:05:35.444Z,4.68
2023-01-07T17:10:38.205Z,4.59
2023-01-07T17:15:42.024Z,4.48
2023-01-07T17:20:45.185Z,4.44
2023-01-07T17:25:48.657Z,4.34
2023-01-07T17:30:51.685Z,4.34
2023-01-07T17:35:54.839Z,4.26
2023-01-07T17:40:57.464Z,4.16
2023-01-07T17:46:01.191Z,4.17
2023-01-07T17:51:04.525Z,4.09
2023-01-07T17:56:07.515Z,4.07
2023-01-07T18:01:10.242Z,3.99
2023-01-07T18:06:13.022Z,3.99
2023-01-07T18:11:33.729Z,3.98
2023-01-07T18:16:36.684Z,3.90
2023-01-07T18:21:40.001Z,3.85
2023-01-07T18:26:42.724Z,3.73
2023-01-07T18:31:45.445Z,3.68
2023-01-07T18:36:49.311Z,3.63
2023-01-07T18:41:53.949Z,3.60
2023-01-07T18:46:56.644Z,3.56
2023-01-07T18:51:59.364Z,3.52
2023-01-07T18:57:02.178Z,3.42
2023-01-07T19:02:06.626Z,3.40
2023-01-07T19:07:10.039Z,3.40
2023-01-07T19:12:12.717Z,3.40
2023-01-07T19:17:15.489Z,3.42
2023-01-07T19:22:18.082Z,3.35
2023-01-07T19:27:20.767Z,3.33
2023-01-07T19:32:24.431Z,3.52
2023-01-07T19:37:27.186Z,3.41
2023-01-07T19:42:29.900Z,3.43
2023-01-07T19:47:32.527Z,3.44
2023-01-07T19:52:35.366Z,3.39
2023-01-07T19:57:37.947Z,3.22
2023-01-07T20:02:40.576Z,3.14
2023-01-07T20:07:43.214Z,3.19
2023-01-07T20:12:45.860Z,3.24
2023-01-07T20:17:49.658Z,3.16
2023-01-07T20:22:53.269Z,3.02
2023-01-07T20:27:56.847Z,3.12
2023-01-07T20:32:59.617Z,3.07
2023-01-07T20:38:02.581Z,3.08
2023-01-07T20:43:05.415Z,3.00
2023-01-07T20:48:08.496Z,2.97
2023-01-07T20:53:11.548Z,2.92
2023-01-07T20:58:14.664Z,2.91
2023-01-07T21:03:17.457Z,2.89
2023-01-07T21:08:20.324Z,2.79
2023-01-07T21:13:23.609Z,2.72
2023-01-07T21:18:26.298Z,2.80
2023-01-07T21:23:29.277Z,2.79
2023-01-07T21:28:32.410Z,2.83
2023-01-07T21:33:35.167Z,2.83
2023-01-07T21:38:37.984Z,2.75
2023-01-07T21:43:40.813Z,2.75
2023-01-07T21:48:46.420Z,2.91
2023-01-07T21:53:49.580Z,2.80
2023-01-07T21:58:52.841Z,2.66
2023-01-07T22:03:55.663Z,2.57
2023-01-07T22:08:58.536Z,2.54
2023-01-07T22:14:01.883Z,2.42
2023-01-07T22:19:04.978Z,2.36
2023-01-07T22:24:07.631Z,2.21
2023-01-07T22:29:10.367Z,2.15
2023-01-07T22:34:12.977Z,2.08
2023-01-07T22:39:15.735Z,2.02
2023-01-07T22:44:18.567Z,1.96
2023-01-07T22:49:21.385Z,1.95
2023-01-07T22:54:24.088Z,1.98
2023-01-07T22:59:27.146Z,1.98
2023-01-07T23:04:30.100Z,1.94
2023-01-07T23:09:32.804Z,1.85
2023-01-07T23:14:35.413Z,1.79
2023-01-07T23:19:38.340Z,1.74
2023-01-07T23:24:41.087Z,1.71
2023-01-07T23:29:43.682Z,1.66
2023-01-07T23:34:46.830Z,1.62
2023-01-07T23:39:49.551Z,1.60
2023-01-07T23:44:52.771Z,1.68
2023-01-07T23:49:56.043Z,1.67
2023-01-07T23:54:59.098Z,1.65
